Terminal Aerodrome Forecast
Issued by NWS

Home | Current Version | Previous Version | Graphics & Text | Print | Product List | Glossary On
Versions: 1 2 3 4 5 6 7 8 9 10 11 12 13 14 15
000
FTUS43 KUNR 100600 AAA
TAFGCC
TAF AMD
KGCC 100631Z 1007/1106 17013KT P6SM SCT080
      TEMPO 1006/1010 -TSRA BKN060CB
     FM101600 34014KT P6SM BKN100=

USA.gov is the U.S. government's official web portal to all federal, state and local government web resources and services.